sensor_id;sensor_type;location;lat;lon;timestamp;P1;durP1;ratioP1;P2;durP2;ratioP2
57385;SDS011;71829;56.976;21.958;2024-01-30T00:02:19;16.38;;;5.32;;
57385;SDS011;71829;56.976;21.958;2024-01-30T00:04:47;21.00;;;7.90;;
57385;SDS011;71829;56.976;21.958;2024-01-30T00:07:14;18.10;;;6.72;;
57385;SDS011;71829;56.976;21.958;2024-01-30T00:09:42;17.27;;;5.60;;
57385;SDS011;71829;56.976;21.958;2024-01-30T00:12:10;17.33;;;5.68;;
57385;SDS011;71829;56.976;21.958;2024-01-30T00:14:37;18.45;;;5.68;;
57385;SDS011;71829;56.976;21.958;2024-01-30T00:17:05;16.33;;;5.22;;
57385;SDS011;71829;56.976;21.958;2024-01-30T00:19:32;16.13;;;6.55;;
57385;SDS011;71829;56.976;21.958;2024-01-30T00:22:00;22.50;;;6.82;;
57385;SDS011;71829;56.976;21.958;2024-01-30T00:24:27;15.85;;;5.50;;
57385;SDS011;71829;56.976;21.958;2024-01-30T00:26:55;16.98;;;6.55;;
57385;SDS011;71829;56.976;21.958;2024-01-30T00:29:22;17.08;;;6.07;;
57385;SDS011;71829;56.976;21.958;2024-01-30T00:31:52;19.35;;;6.50;;
57385;SDS011;71829;56.976;21.958;2024-01-30T00:34:19;16.80;;;5.88;;
57385;SDS011;71829;56.976;21.958;2024-01-30T00:36:47;20.05;;;6.50;;
57385;SDS011;71829;56.976;21.958;2024-01-30T00:39:15;17.33;;;6.55;;
57385;SDS011;71829;56.976;21.958;2024-01-30T00:41:42;18.88;;;7.25;;
57385;SDS011;71829;56.976;21.958;2024-01-30T00:44:10;15.75;;;6.15;;
57385;SDS011;71829;56.976;21.958;2024-01-30T00:46:37;17.45;;;6.85;;
57385;SDS011;71829;56.976;21.958;2024-01-30T00:49:05;15.52;;;5.65;;
57385;SDS011;71829;56.976;21.958;2024-01-30T00:51:32;20.42;;;8.02;;
57385;SDS011;71829;56.976;21.958;2024-01-30T00:54:00;17.83;;;6.22;;
57385;SDS011;71829;56.976;21.958;2024-01-30T00:56:27;22.77;;;7.15;;
57385;SDS011;71829;56.976;21.958;2024-01-30T00:58:55;17.77;;;6.90;;
57385;SDS011;71829;56.976;21.958;2024-01-30T01:01:23;22.83;;;7.70;;
57385;SDS011;71829;56.976;21.958;2024-01-30T01:03:50;19.85;;;7.25;;
57385;SDS011;71829;56.976;21.958;2024-01-30T01:06:18;24.58;;;8.27;;
57385;SDS011;71829;56.976;21.958;2024-01-30T01:08:46;18.90;;;7.25;;
57385;SDS011;71829;56.976;21.958;2024-01-30T01:11:13;23.77;;;7.65;;
57385;SDS011;71829;56.976;21.958;2024-01-30T01:13:41;17.05;;;6.82;;
57385;SDS011;71829;56.976;21.958;2024-01-30T01:16:08;21.08;;;6.50;;
57385;SDS011;71829;56.976;21.958;2024-01-30T01:18:36;18.63;;;7.25;;
57385;SDS011;71829;56.976;21.958;2024-01-30T01:21:04;18.13;;;6.93;;
57385;SDS011;71829;56.976;21.958;2024-01-30T01:23:32;18.65;;;7.93;;
57385;SDS011;71829;56.976;21.958;2024-01-30T01:25:59;25.02;;;6.80;;
57385;SDS011;71829;56.976;21.958;2024-01-30T01:28:27;20.42;;;7.63;;
57385;SDS011;71829;56.976;21.958;2024-01-30T01:30:55;26.00;;;9.82;;
57385;SDS011;71829;56.976;21.958;2024-01-30T01:33:25;20.67;;;7.85;;
57385;SDS011;71829;56.976;21.958;2024-01-30T01:35:53;21.25;;;7.28;;
57385;SDS011;71829;56.976;21.958;2024-01-30T01:38:21;22.85;;;7.75;;
57385;SDS011;71829;56.976;21.958;2024-01-30T01:40:48;22.73;;;7.82;;
57385;SDS011;71829;56.976;21.958;2024-01-30T01:43:15;21.17;;;6.57;;
57385;SDS011;71829;56.976;21.958;2024-01-30T01:45:43;21.90;;;8.05;;
57385;SDS011;71829;56.976;21.958;2024-01-30T01:48:10;22.65;;;7.30;;
57385;SDS011;71829;56.976;21.958;2024-01-30T01:50:39;19.58;;;6.78;;
57385;SDS011;71829;56.976;21.958;2024-01-30T01:53:07;20.33;;;7.18;;
57385;SDS011;71829;56.976;21.958;2024-01-30T01:55:35;17.92;;;7.43;;
57385;SDS011;71829;56.976;21.958;2024-01-30T01:58:03;21.27;;;7.88;;
57385;SDS011;71829;56.976;21.958;2024-01-30T02:00:30;24.58;;;7.93;;
57385;SDS011;71829;56.976;21.958;2024-01-30T02:02:58;27.60;;;8.95;;
57385;SDS011;71829;56.976;21.958;2024-01-30T02:05:26;18.65;;;7.95;;
57385;SDS011;71829;56.976;21.958;2024-01-30T02:07:53;54.78;;;18.65;;
57385;SDS011;71829;56.976;21.958;2024-01-30T02:10:21;20.58;;;9.40;;
57385;SDS011;71829;56.976;21.958;2024-01-30T02:12:49;24.55;;;11.55;;
57385;SDS011;71829;56.976;21.958;2024-01-30T02:15:16;39.92;;;23.38;;
57385;SDS011;71829;56.976;21.958;2024-01-30T02:17:44;21.83;;;9.15;;
57385;SDS011;71829;56.976;21.958;2024-01-30T02:20:12;19.98;;;7.90;;
57385;SDS011;71829;56.976;21.958;2024-01-30T02:22:40;25.02;;;9.48;;
57385;SDS011;71829;56.976;21.958;2024-01-30T02:25:08;23.65;;;8.63;;
57385;SDS011;71829;56.976;21.958;2024-01-30T02:27:35;21.90;;;7.88;;
57385;SDS011;71829;56.976;21.958;2024-01-30T02:30:03;25.42;;;8.80;;
57385;SDS011;71829;56.976;21.958;2024-01-30T02:32:30;24.35;;;8.35;;
57385;SDS011;71829;56.976;21.958;2024-01-30T02:34:58;22.15;;;8.45;;
57385;SDS011;71829;56.976;21.958;2024-01-30T02:37:25;23.70;;;8.55;;
57385;SDS011;71829;56.976;21.958;2024-01-30T02:39:53;22.08;;;7.80;;
57385;SDS011;71829;56.976;21.958;2024-01-30T02:42:21;19.95;;;8.23;;
57385;SDS011;71829;56.976;21.958;2024-01-30T02:44:48;26.60;;;8.35;;
57385;SDS011;71829;56.976;21.958;2024-01-30T02:47:16;20.80;;;7.35;;
57385;SDS011;71829;56.976;21.958;2024-01-30T02:49:43;26.35;;;8.85;;
57385;SDS011;71829;56.976;21.958;2024-01-30T02:52:11;22.02;;;7.75;;
57385;SDS011;71829;56.976;21.958;2024-01-30T02:54:38;23.23;;;9.70;;
57385;SDS011;71829;56.976;21.958;2024-01-30T02:57:06;19.48;;;7.20;;
57385;SDS011;71829;56.976;21.958;2024-01-30T02:59:33;21.02;;;8.48;;
57385;SDS011;71829;56.976;21.958;2024-01-30T03:02:02;23.50;;;7.70;;
57385;SDS011;71829;56.976;21.958;2024-01-30T03:04:30;23.38;;;7.60;;
57385;SDS011;71829;56.976;21.958;2024-01-30T03:06:57;21.27;;;8.40;;
57385;SDS011;71829;56.976;21.958;2024-01-30T03:09:25;21.95;;;8.73;;
57385;SDS011;71829;56.976;21.958;2024-01-30T03:11:52;22.02;;;9.05;;
57385;SDS011;71829;56.976;21.958;2024-01-30T03:14:19;23.50;;;8.32;;
57385;SDS011;71829;56.976;21.958;2024-01-30T03:16:46;23.02;;;10.20;;
57385;SDS011;71829;56.976;21.958;2024-01-30T03:19:13;21.55;;;10.38;;
57385;SDS011;71829;56.976;21.958;2024-01-30T03:21:41;24.92;;;9.80;;
57385;SDS011;71829;56.976;21.958;2024-01-30T03:24:08;20.27;;;8.77;;
57385;SDS011;71829;56.976;21.958;2024-01-30T03:26:35;19.67;;;8.20;;
57385;SDS011;71829;56.976;21.958;2024-01-30T03:29:02;20.25;;;8.30;;
57385;SDS011;71829;56.976;21.958;2024-01-30T03:31:29;20.73;;;9.07;;
57385;SDS011;71829;56.976;21.958;2024-01-30T03:33:57;22.50;;;8.77;;
57385;SDS011;71829;56.976;21.958;2024-01-30T03:36:24;23.77;;;9.35;;
57385;SDS011;71829;56.976;21.958;2024-01-30T03:38:51;26.13;;;8.75;;
57385;SDS011;71829;56.976;21.958;2024-01-30T03:41:19;21.25;;;8.52;;
57385;SDS011;71829;56.976;21.958;2024-01-30T03:43:47;22.58;;;8.48;;
57385;SDS011;71829;56.976;21.958;2024-01-30T03:46:14;22.52;;;9.05;;
57385;SDS011;71829;56.976;21.958;2024-01-30T03:48:42;19.80;;;8.65;;
57385;SDS011;71829;56.976;21.958;2024-01-30T03:51:09;20.85;;;8.38;;
57385;SDS011;71829;56.976;21.958;2024-01-30T03:53:41;29.35;;;9.45;;
57385;SDS011;71829;56.976;21.958;2024-01-30T03:56:09;25.35;;;10.20;;
57385;SDS011;71829;56.976;21.958;2024-01-30T03:58:36;25.33;;;9.02;;
57385;SDS011;71829;56.976;21.958;2024-01-30T04:01:04;26.42;;;8.93;;
57385;SDS011;71829;56.976;21.958;2024-01-30T04:03:32;21.70;;;8.43;;
57385;SDS011;71829;56.976;21.958;2024-01-30T04:05:59;24.95;;;7.95;;
57385;SDS011;71829;56.976;21.958;2024-01-30T04:08:27;23.15;;;8.90;;
57385;SDS011;71829;56.976;21.958;2024-01-30T04:10:54;29.73;;;10.25;;
57385;SDS011;71829;56.976;21.958;2024-01-30T04:13:22;27.90;;;9.25;;
57385;SDS011;71829;56.976;21.958;2024-01-30T04:15:49;21.85;;;9.65;;
57385;SDS011;71829;56.976;21.958;2024-01-30T04:18:17;23.75;;;8.65;;
57385;SDS011;71829;56.976;21.958;2024-01-30T04:20:44;22.20;;;9.18;;
57385;SDS011;71829;56.976;21.958;2024-01-30T04:23:12;22.88;;;9.10;;
57385;SDS011;71829;56.976;21.958;2024-01-30T04:25:39;23.83;;;10.25;;
57385;SDS011;71829;56.976;21.958;2024-01-30T04:28:07;27.40;;;9.02;;
57385;SDS011;71829;56.976;21.958;2024-01-30T04:30:34;23.77;;;9.20;;
57385;SDS011;71829;56.976;21.958;2024-01-30T04:33:02;22.65;;;8.75;;
57385;SDS011;71829;56.976;21.958;2024-01-30T04:35:30;24.05;;;10.18;;
57385;SDS011;71829;56.976;21.958;2024-01-30T04:37:58;28.95;;;10.38;;
57385;SDS011;71829;56.976;21.958;2024-01-30T04:40:25;23.77;;;9.23;;
57385;SDS011;71829;56.976;21.958;2024-01-30T04:42:53;25.13;;;9.65;;
57385;SDS011;71829;56.976;21.958;2024-01-30T04:45:20;25.52;;;9.65;;
57385;SDS011;71829;56.976;21.958;2024-01-30T04:47:48;28.85;;;11.07;;
57385;SDS011;71829;56.976;21.958;2024-01-30T04:50:15;25.50;;;10.05;;
57385;SDS011;71829;56.976;21.958;2024-01-30T04:52:43;28.58;;;9.88;;
57385;SDS011;71829;56.976;21.958;2024-01-30T04:55:10;21.95;;;8.80;;
57385;SDS011;71829;56.976;21.958;2024-01-30T04:57:38;29.15;;;10.15;;
57385;SDS011;71829;56.976;21.958;2024-01-30T05:00:05;28.67;;;10.40;;
57385;SDS011;71829;56.976;21.958;2024-01-30T05:02:33;24.23;;;9.90;;
57385;SDS011;71829;56.976;21.958;2024-01-30T05:05:00;26.30;;;10.55;;
57385;SDS011;71829;56.976;21.958;2024-01-30T05:07:29;27.10;;;14.02;;
57385;SDS011;71829;56.976;21.958;2024-01-30T05:09:57;122.63;;;49.40;;
57385;SDS011;71829;56.976;21.958;2024-01-30T05:12:26;30.83;;;16.52;;
57385;SDS011;71829;56.976;21.958;2024-01-30T05:14:53;26.98;;;11.38;;
57385;SDS011;71829;56.976;21.958;2024-01-30T05:17:21;28.73;;;10.43;;
57385;SDS011;71829;56.976;21.958;2024-01-30T05:19:48;30.15;;;11.20;;
57385;SDS011;71829;56.976;21.958;2024-01-30T05:22:16;27.83;;;10.88;;
57385;SDS011;71829;56.976;21.958;2024-01-30T05:24:45;24.67;;;10.38;;
57385;SDS011;71829;56.976;21.958;2024-01-30T05:29:41;32.88;;;11.88;;
57385;SDS011;71829;56.976;21.958;2024-01-30T05:32:08;26.58;;;11.32;;
57385;SDS011;71829;56.976;21.958;2024-01-30T05:34:37;30.55;;;10.88;;
57385;SDS011;71829;56.976;21.958;2024-01-30T05:37:04;26.63;;;11.45;;
57385;SDS011;71829;56.976;21.958;2024-01-30T05:39:32;33.10;;;12.85;;
57385;SDS011;71829;56.976;21.958;2024-01-30T05:41:59;32.88;;;12.82;;
57385;SDS011;71829;56.976;21.958;2024-01-30T05:44:27;28.35;;;11.55;;
57385;SDS011;71829;56.976;21.958;2024-01-30T05:46:54;26.63;;;11.43;;
57385;SDS011;71829;56.976;21.958;2024-01-30T05:49:22;29.77;;;11.55;;
57385;SDS011;71829;56.976;21.958;2024-01-30T05:51:49;24.88;;;10.73;;
57385;SDS011;71829;56.976;21.958;2024-01-30T05:54:17;33.33;;;12.43;;
57385;SDS011;71829;56.976;21.958;2024-01-30T05:56:45;54.25;;;24.88;;
57385;SDS011;71829;56.976;21.958;2024-01-30T05:59:12;38.25;;;22.15;;
57385;SDS011;71829;56.976;21.958;2024-01-30T06:01:46;30.50;;;12.85;;
57385;SDS011;71829;56.976;21.958;2024-01-30T06:04:14;33.50;;;15.30;;
57385;SDS011;71829;56.976;21.958;2024-01-30T06:06:42;31.15;;;13.13;;
57385;SDS011;71829;56.976;21.958;2024-01-30T06:09:10;34.55;;;13.68;;
57385;SDS011;71829;56.976;21.958;2024-01-30T06:11:39;34.47;;;13.02;;
57385;SDS011;71829;56.976;21.958;2024-01-30T06:14:06;36.72;;;14.52;;
57385;SDS011;71829;56.976;21.958;2024-01-30T06:16:34;44.83;;;18.40;;
57385;SDS011;71829;56.976;21.958;2024-01-30T06:19:01;49.92;;;21.13;;
57385;SDS011;71829;56.976;21.958;2024-01-30T06:21:29;41.70;;;19.80;;
57385;SDS011;71829;56.976;21.958;2024-01-30T06:23:58;47.85;;;20.48;;
57385;SDS011;71829;56.976;21.958;2024-01-30T06:26:25;43.30;;;18.88;;
57385;SDS011;71829;56.976;21.958;2024-01-30T06:28:53;44.95;;;18.92;;
57385;SDS011;71829;56.976;21.958;2024-01-30T06:31:20;42.50;;;19.60;;
57385;SDS011;71829;56.976;21.958;2024-01-30T06:33:48;40.80;;;19.10;;
57385;SDS011;71829;56.976;21.958;2024-01-30T06:36:17;37.03;;;16.60;;
57385;SDS011;71829;56.976;21.958;2024-01-30T06:38:45;35.85;;;16.80;;
57385;SDS011;71829;56.976;21.958;2024-01-30T06:41:12;45.47;;;23.73;;
57385;SDS011;71829;56.976;21.958;2024-01-30T06:43:40;40.42;;;16.55;;
57385;SDS011;71829;56.976;21.958;2024-01-30T06:46:07;42.75;;;17.70;;
57385;SDS011;71829;56.976;21.958;2024-01-30T06:48:35;41.72;;;17.85;;
57385;SDS011;71829;56.976;21.958;2024-01-30T06:51:03;43.25;;;19.23;;
57385;SDS011;71829;56.976;21.958;2024-01-30T06:53:31;44.33;;;19.58;;
57385;SDS011;71829;56.976;21.958;2024-01-30T06:55:58;44.42;;;18.52;;
57385;SDS011;71829;56.976;21.958;2024-01-30T06:58:26;45.58;;;20.33;;
57385;SDS011;71829;56.976;21.958;2024-01-30T07:00:54;44.15;;;17.70;;
57385;SDS011;71829;56.976;21.958;2024-01-30T07:03:22;42.40;;;17.88;;
57385;SDS011;71829;56.976;21.958;2024-01-30T07:05:49;41.10;;;17.30;;
57385;SDS011;71829;56.976;21.958;2024-01-30T07:08:18;37.13;;;17.13;;
57385;SDS011;71829;56.976;21.958;2024-01-30T07:10:45;35.13;;;13.45;;
57385;SDS011;71829;56.976;21.958;2024-01-30T07:13:13;46.85;;;20.70;;
57385;SDS011;71829;56.976;21.958;2024-01-30T07:15:43;63.97;;;26.98;;
57385;SDS011;71829;56.976;21.958;2024-01-30T07:18:10;73.32;;;27.23;;
57385;SDS011;71829;56.976;21.958;2024-01-30T07:20:40;56.85;;;24.65;;
57385;SDS011;71829;56.976;21.958;2024-01-30T07:23:13;31.63;;;14.95;;
57385;SDS011;71829;56.976;21.958;2024-01-30T07:25:45;34.60;;;12.82;;
57385;SDS011;71829;56.976;21.958;2024-01-30T07:28:16;28.50;;;11.60;;
57385;SDS011;71829;56.976;21.958;2024-01-30T07:30:44;31.80;;;13.23;;
57385;SDS011;71829;56.976;21.958;2024-01-30T07:33:12;42.20;;;16.00;;
57385;SDS011;71829;56.976;21.958;2024-01-30T07:35:40;33.05;;;13.55;;
57385;SDS011;71829;56.976;21.958;2024-01-30T07:38:07;42.05;;;17.45;;
57385;SDS011;71829;56.976;21.958;2024-01-30T07:40:35;44.03;;;18.33;;
57385;SDS011;71829;56.976;21.958;2024-01-30T07:43:02;34.25;;;16.73;;
57385;SDS011;71829;56.976;21.958;2024-01-30T07:45:30;34.35;;;16.00;;
57385;SDS011;71829;56.976;21.958;2024-01-30T07:47:59;30.48;;;14.63;;
57385;SDS011;71829;56.976;21.958;2024-01-30T07:50:29;37.38;;;14.98;;
57385;SDS011;71829;56.976;21.958;2024-01-30T07:52:59;40.25;;;19.10;;
57385;SDS011;71829;56.976;21.958;2024-01-30T07:55:27;36.75;;;18.58;;
57385;SDS011;71829;56.976;21.958;2024-01-30T07:57:55;39.08;;;18.27;;
57385;SDS011;71829;56.976;21.958;2024-01-30T08:00:23;66.97;;;33.58;;
57385;SDS011;71829;56.976;21.958;2024-01-30T08:02:50;44.78;;;21.13;;
57385;SDS011;71829;56.976;21.958;2024-01-30T08:05:21;47.60;;;18.80;;
57385;SDS011;71829;56.976;21.958;2024-01-30T08:07:51;47.75;;;18.67;;
57385;SDS011;71829;56.976;21.958;2024-01-30T08:10:19;37.33;;;16.90;;
57385;SDS011;71829;56.976;21.958;2024-01-30T08:12:47;38.15;;;15.63;;
57385;SDS011;71829;56.976;21.958;2024-01-30T08:15:15;35.55;;;14.07;;
57385;SDS011;71829;56.976;21.958;2024-01-30T08:17:42;33.85;;;14.52;;
57385;SDS011;71829;56.976;21.958;2024-01-30T08:20:11;34.25;;;13.57;;
57385;SDS011;71829;56.976;21.958;2024-01-30T08:22:40;36.90;;;15.45;;
57385;SDS011;71829;56.976;21.958;2024-01-30T08:25:08;37.17;;;14.93;;
57385;SDS011;71829;56.976;21.958;2024-01-30T08:27:36;36.60;;;14.73;;
57385;SDS011;71829;56.976;21.958;2024-01-30T08:30:08;35.47;;;15.93;;
57385;SDS011;71829;56.976;21.958;2024-01-30T08:32:36;38.53;;;14.32;;
57385;SDS011;71829;56.976;21.958;2024-01-30T08:35:03;45.70;;;19.92;;
57385;SDS011;71829;56.976;21.958;2024-01-30T08:37:32;38.28;;;20.40;;
57385;SDS011;71829;56.976;21.958;2024-01-30T08:39:59;55.67;;;21.58;;
57385;SDS011;71829;56.976;21.958;2024-01-30T08:42:29;32.42;;;15.13;;
57385;SDS011;71829;56.976;21.958;2024-01-30T08:44:56;23.88;;;12.27;;
57385;SDS011;71829;56.976;21.958;2024-01-30T08:47:23;28.00;;;12.02;;
57385;SDS011;71829;56.976;21.958;2024-01-30T08:49:51;36.33;;;13.57;;
57385;SDS011;71829;56.976;21.958;2024-01-30T08:52:19;34.97;;;16.80;;
57385;SDS011;71829;56.976;21.958;2024-01-30T08:54:46;29.52;;;11.55;;
57385;SDS011;71829;56.976;21.958;2024-01-30T08:57:14;27.67;;;12.80;;
57385;SDS011;71829;56.976;21.958;2024-01-30T08:59:42;31.92;;;12.73;;
57385;SDS011;71829;56.976;21.958;2024-01-30T09:02:13;26.08;;;10.07;;
57385;SDS011;71829;56.976;21.958;2024-01-30T09:04:43;31.13;;;11.07;;
57385;SDS011;71829;56.976;21.958;2024-01-30T09:07:10;27.33;;;10.88;;
57385;SDS011;71829;56.976;21.958;2024-01-30T09:09:40;32.38;;;11.50;;
57385;SDS011;71829;56.976;21.958;2024-01-30T09:12:08;30.90;;;12.02;;
57385;SDS011;71829;56.976;21.958;2024-01-30T09:14:39;28.17;;;13.23;;
57385;SDS011;71829;56.976;21.958;2024-01-30T09:17:08;24.40;;;11.68;;
57385;SDS011;71829;56.976;21.958;2024-01-30T09:19:35;31.60;;;11.38;;
57385;SDS011;71829;56.976;21.958;2024-01-30T09:22:03;27.60;;;11.75;;
57385;SDS011;71829;56.976;21.958;2024-01-30T09:24:31;30.35;;;11.77;;
57385;SDS011;71829;56.976;21.958;2024-01-30T09:26:58;28.45;;;12.07;;
57385;SDS011;71829;56.976;21.958;2024-01-30T09:29:26;28.55;;;11.25;;
57385;SDS011;71829;56.976;21.958;2024-01-30T09:31:53;29.85;;;13.25;;
57385;SDS011;71829;56.976;21.958;2024-01-30T09:34:21;28.98;;;12.00;;
57385;SDS011;71829;56.976;21.958;2024-01-30T09:36:49;27.75;;;12.30;;
57385;SDS011;71829;56.976;21.958;2024-01-30T09:39:16;37.22;;;14.10;;
57385;SDS011;71829;56.976;21.958;2024-01-30T09:41:49;29.23;;;13.07;;
57385;SDS011;71829;56.976;21.958;2024-01-30T09:44:21;32.88;;;11.50;;
57385;SDS011;71829;56.976;21.958;2024-01-30T09:46:50;27.02;;;12.00;;
57385;SDS011;71829;56.976;21.958;2024-01-30T09:49:18;32.15;;;12.90;;
57385;SDS011;71829;56.976;21.958;2024-01-30T09:51:47;30.35;;;11.32;;
57385;SDS011;71829;56.976;21.958;2024-01-30T09:54:16;32.03;;;13.13;;
57385;SDS011;71829;56.976;21.958;2024-01-30T09:56:45;30.60;;;11.45;;
57385;SDS011;71829;56.976;21.958;2024-01-30T09:59:12;33.22;;;12.27;;
57385;SDS011;71829;56.976;21.958;2024-01-30T10:01:40;27.25;;;12.27;;
57385;SDS011;71829;56.976;21.958;2024-01-30T10:04:08;25.88;;;11.00;;
57385;SDS011;71829;56.976;21.958;2024-01-30T10:06:37;29.35;;;12.25;;
57385;SDS011;71829;56.976;21.958;2024-01-30T10:09:04;27.50;;;11.43;;
57385;SDS011;71829;56.976;21.958;2024-01-30T10:11:31;33.20;;;12.07;;
57385;SDS011;71829;56.976;21.958;2024-01-30T10:13:59;32.38;;;12.27;;
57385;SDS011;71829;56.976;21.958;2024-01-30T10:16:27;65.43;;;31.60;;
57385;SDS011;71829;56.976;21.958;2024-01-30T10:18:54;33.13;;;13.80;;
57385;SDS011;71829;56.976;21.958;2024-01-30T10:21:22;26.52;;;10.52;;
57385;SDS011;71829;56.976;21.958;2024-01-30T10:23:49;33.47;;;13.45;;
57385;SDS011;71829;56.976;21.958;2024-01-30T10:26:16;30.92;;;12.18;;
57385;SDS011;71829;56.976;21.958;2024-01-30T10:28:44;33.83;;;13.70;;
57385;SDS011;71829;56.976;21.958;2024-01-30T10:31:15;30.27;;;12.25;;
57385;SDS011;71829;56.976;21.958;2024-01-30T10:33:44;28.67;;;11.48;;
57385;SDS011;71829;56.976;21.958;2024-01-30T10:36:14;31.63;;;12.32;;
57385;SDS011;71829;56.976;21.958;2024-01-30T10:38:46;27.98;;;11.48;;
57385;SDS011;71829;56.976;21.958;2024-01-30T10:41:18;38.33;;;14.07;;
57385;SDS011;71829;56.976;21.958;2024-01-30T10:43:55;33.97;;;13.60;;
57385;SDS011;71829;56.976;21.958;2024-01-30T10:46:37;35.05;;;12.85;;
57385;SDS011;71829;56.976;21.958;2024-01-30T10:49:05;33.85;;;13.43;;
57385;SDS011;71829;56.976;21.958;2024-01-30T10:51:33;29.83;;;12.73;;
57385;SDS011;71829;56.976;21.958;2024-01-30T10:54:03;37.67;;;14.30;;
57385;SDS011;71829;56.976;21.958;2024-01-30T10:56:32;36.30;;;14.27;;
57385;SDS011;71829;56.976;21.958;2024-01-30T10:59:01;53.13;;;33.60;;
57385;SDS011;71829;56.976;21.958;2024-01-30T11:01:30;30.60;;;12.80;;
57385;SDS011;71829;56.976;21.958;2024-01-30T11:03:58;28.10;;;10.27;;
57385;SDS011;71829;56.976;21.958;2024-01-30T11:06:25;24.73;;;10.55;;
57385;SDS011;71829;56.976;21.958;2024-01-30T11:09:02;28.45;;;11.85;;
57385;SDS011;71829;56.976;21.958;2024-01-30T11:11:30;38.38;;;14.50;;
57385;SDS011;71829;56.976;21.958;2024-01-30T11:14:00;33.65;;;14.98;;
57385;SDS011;71829;56.976;21.958;2024-01-30T11:16:30;42.67;;;17.10;;
57385;SDS011;71829;56.976;21.958;2024-01-30T11:19:00;30.88;;;11.82;;
57385;SDS011;71829;56.976;21.958;2024-01-30T11:21:28;33.13;;;11.68;;
57385;SDS011;71829;56.976;21.958;2024-01-30T11:23:56;24.13;;;10.13;;
57385;SDS011;71829;56.976;21.958;2024-01-30T11:26:27;28.95;;;10.00;;
57385;SDS011;71829;56.976;21.958;2024-01-30T11:28:55;31.10;;;15.45;;
57385;SDS011;71829;56.976;21.958;2024-01-30T11:31:23;24.08;;;10.02;;
57385;SDS011;71829;56.976;21.958;2024-01-30T11:33:52;38.05;;;14.88;;
57385;SDS011;71829;56.976;21.958;2024-01-30T11:36:21;36.03;;;14.05;;
57385;SDS011;71829;56.976;21.958;2024-01-30T11:38:53;26.45;;;12.65;;
57385;SDS011;71829;56.976;21.958;2024-01-30T11:41:21;28.35;;;11.27;;
57385;SDS011;71829;56.976;21.958;2024-01-30T11:43:53;27.15;;;10.93;;
57385;SDS011;71829;56.976;21.958;2024-01-30T11:46:20;30.50;;;11.32;;
57385;SDS011;71829;56.976;21.958;2024-01-30T11:48:48;29.67;;;11.57;;
57385;SDS011;71829;56.976;21.958;2024-01-30T11:53:53;25.67;;;10.18;;
57385;SDS011;71829;56.976;21.958;2024-01-30T11:56:21;30.00;;;10.95;;
57385;SDS011;71829;56.976;21.958;2024-01-30T11:58:48;30.33;;;11.48;;
57385;SDS011;71829;56.976;21.958;2024-01-30T12:01:16;29.27;;;11.02;;
57385;SDS011;71829;56.976;21.958;2024-01-30T12:03:50;29.10;;;11.18;;
57385;SDS011;71829;56.976;21.958;2024-01-30T12:06:17;30.23;;;11.77;;
57385;SDS011;71829;56.976;21.958;2024-01-30T12:08:57;29.77;;;12.43;;
57385;SDS011;71829;56.976;21.958;2024-01-30T12:11:26;25.33;;;10.95;;
57385;SDS011;71829;56.976;21.958;2024-01-30T12:13:54;23.00;;;9.30;;
57385;SDS011;71829;56.976;21.958;2024-01-30T12:16:21;28.60;;;11.23;;
57385;SDS011;71829;56.976;21.958;2024-01-30T12:18:48;26.85;;;10.93;;
57385;SDS011;71829;56.976;21.958;2024-01-30T12:21:19;31.63;;;12.75;;
57385;SDS011;71829;56.976;21.958;2024-01-30T12:23:46;28.88;;;10.80;;
57385;SDS011;71829;56.976;21.958;2024-01-30T12:26:13;25.85;;;10.65;;
57385;SDS011;71829;56.976;21.958;2024-01-30T12:28:50;28.60;;;10.40;;
57385;SDS011;71829;56.976;21.958;2024-01-30T12:31:17;24.42;;;10.52;;
57385;SDS011;71829;56.976;21.958;2024-01-30T12:33:44;26.17;;;11.38;;
57385;SDS011;71829;56.976;21.958;2024-01-30T12:36:16;27.35;;;11.77;;
57385;SDS011;71829;56.976;21.958;2024-01-30T12:38:43;26.77;;;11.35;;
57385;SDS011;71829;56.976;21.958;2024-01-30T12:41:11;23.60;;;9.45;;
57385;SDS011;71829;56.976;21.958;2024-01-30T12:43:38;22.85;;;10.00;;
57385;SDS011;71829;56.976;21.958;2024-01-30T12:46:05;30.05;;;10.77;;
57385;SDS011;71829;56.976;21.958;2024-01-30T12:48:34;25.98;;;10.90;;
57385;SDS011;71829;56.976;21.958;2024-01-30T12:51:01;24.48;;;9.45;;
57385;SDS011;71829;56.976;21.958;2024-01-30T12:53:28;24.23;;;10.05;;
57385;SDS011;71829;56.976;21.958;2024-01-30T12:55:56;25.17;;;11.13;;
57385;SDS011;71829;56.976;21.958;2024-01-30T12:58:23;25.98;;;10.30;;
57385;SDS011;71829;56.976;21.958;2024-01-30T13:00:50;26.90;;;12.25;;
57385;SDS011;71829;56.976;21.958;2024-01-30T13:05:57;26.83;;;10.15;;
57385;SDS011;71829;56.976;21.958;2024-01-30T13:08:24;27.58;;;10.95;;
57385;SDS011;71829;56.976;21.958;2024-01-30T13:10:51;25.15;;;9.98;;
57385;SDS011;71829;56.976;21.958;2024-01-30T13:13:19;24.92;;;10.52;;
57385;SDS011;71829;56.976;21.958;2024-01-30T13:15:47;30.08;;;14.20;;
57385;SDS011;71829;56.976;21.958;2024-01-30T13:18:15;27.65;;;10.75;;
57385;SDS011;71829;56.976;21.958;2024-01-30T13:20:42;28.85;;;11.13;;
57385;SDS011;71829;56.976;21.958;2024-01-30T13:23:09;27.13;;;11.48;;
57385;SDS011;71829;56.976;21.958;2024-01-30T13:25:36;29.60;;;11.55;;
57385;SDS011;71829;56.976;21.958;2024-01-30T13:28:04;24.65;;;10.25;;
57385;SDS011;71829;56.976;21.958;2024-01-30T13:30:31;26.25;;;12.15;;
57385;SDS011;71829;56.976;21.958;2024-01-30T13:32:58;29.83;;;12.18;;
57385;SDS011;71829;56.976;21.958;2024-01-30T13:35:25;25.90;;;10.00;;
57385;SDS011;71829;56.976;21.958;2024-01-30T13:37:52;27.70;;;10.98;;
57385;SDS011;71829;56.976;21.958;2024-01-30T13:40:19;28.92;;;11.32;;
57385;SDS011;71829;56.976;21.958;2024-01-30T13:42:48;28.27;;;11.85;;
57385;SDS011;71829;56.976;21.958;2024-01-30T13:45:16;28.63;;;11.90;;
57385;SDS011;71829;56.976;21.958;2024-01-30T13:47:43;32.33;;;14.50;;
57385;SDS011;71829;56.976;21.958;2024-01-30T13:50:13;27.63;;;11.50;;
57385;SDS011;71829;56.976;21.958;2024-01-30T13:52:43;29.38;;;11.57;;
57385;SDS011;71829;56.976;21.958;2024-01-30T13:55:11;23.52;;;10.68;;
57385;SDS011;71829;56.976;21.958;2024-01-30T13:57:40;26.17;;;11.25;;
57385;SDS011;71829;56.976;21.958;2024-01-30T14:00:15;22.10;;;10.93;;
57385;SDS011;71829;56.976;21.958;2024-01-30T14:03:04;28.35;;;11.23;;
57385;SDS011;71829;56.976;21.958;2024-01-30T14:05:32;27.98;;;12.50;;
57385;SDS011;71829;56.976;21.958;2024-01-30T14:08:00;28.17;;;11.07;;
57385;SDS011;71829;56.976;21.958;2024-01-30T14:10:28;32.65;;;13.98;;
57385;SDS011;71829;56.976;21.958;2024-01-30T14:12:55;33.35;;;14.77;;
57385;SDS011;71829;56.976;21.958;2024-01-30T14:15:24;33.42;;;14.60;;
57385;SDS011;71829;56.976;21.958;2024-01-30T14:17:55;36.45;;;14.30;;
57385;SDS011;71829;56.976;21.958;2024-01-30T14:20:24;39.15;;;17.58;;
57385;SDS011;71829;56.976;21.958;2024-01-30T14:22:54;34.85;;;15.20;;
57385;SDS011;71829;56.976;21.958;2024-01-30T14:25:23;32.63;;;14.77;;
57385;SDS011;71829;56.976;21.958;2024-01-30T14:27:50;34.08;;;16.00;;